Airfield :
LOGIN :

Register | Disclaimer

   EN    FR    IT 

 










Legend :    VFR   Marginal VFR   IFR   Intensive IFR   Very Intensive IFR
Visi :
Ceiling :
>= 8 km
>= 3000ft
5 to 8 km
1000 to 3000 ft
1500m to 5 km
500 to 1000 ft
800 to 1500m
200 to 500 ft
< 800m
< 200 ft
Symbols :   Thunderstorms  Fog  Heavy snow  Heavy precipitations  Wind > 20 kt
SIGMETs :     Misc.  Thunderstorms  Icing  Turbulence  Mountain Waves  Volcanic Ashes







- Airport Elevation : 597 ft
- IATA code : PDV


LBPD - Plovdiv

CURRENT METAR :
  • 271130Z AUTO 28007KT 240V330 9999 NCD 31/14 Q1016 NOSIG

EXPIRED METARs :
  • 271100Z AUTO 26004KT 170V340 9999 FEW067 31/14 Q1016 NOSIG
  • 271030Z AUTO VRB03KT 9999 NCD 30/15 Q1017 NOSIG
  • 271000Z AUTO 34004KT 310V060 9999 NCD 30/15 Q1017 NOSIG
  • 270930Z AUTO 34006KT 290V020 9999 NCD 29/16 Q1018 NOSIG
  • 270900Z AUTO 28005KT 250V320 9999 FEW052 29/16 Q1018 NOSIG

TAF TAF LBPD
Valid from the 27 at 12:00 until the 28 at 12:00 UTC


271100Z 2712/2812 27010KT 9999 SCT060
BECMG 2717/2719 VRB04KT
BECMG 2807/2809 28012KT
TEMPO 2809/2812 5000 TSRA SCT030CB BKN040
No reported NOTAMs for that airfield.



MET'MAP, your aeronautical weather chart ! - Copyright ORBIFLY December 2007 - Disclaimer

ORBIFLY MET'MAP TEAM :

Programming & Development : Alexandra Zaïnal
Concept & Development : Baudouin d'Aumeries
Co-Development & Prog : Marc-Olivier Méhu
Technical & hardware support : Manuel Goepfert

Contact : metmap@orbifly.com




SOURCES & CREDITS :

   NOAA